createdAt,value
2017-10-13T00:00:16.945Z,3.5
2017-10-13T00:02:16.790Z,5.6
2017-10-13T00:04:17.706Z,10.4
2017-10-13T00:06:17.581Z,7.3
2017-10-13T00:08:17.441Z,13.3
2017-10-13T00:10:17.301Z,4.5
2017-10-13T00:12:17.229Z,9.2
2017-10-13T00:14:21.074Z,7.3
2017-10-13T00:16:17.940Z,5.4
2017-10-13T00:18:17.785Z,6.1
2017-10-13T00:20:17.682Z,7.1
2017-10-13T00:22:17.571Z,2.1
2017-10-13T00:24:17.429Z,6.3
2017-10-13T00:26:17.298Z,4.1
2017-10-13T00:28:17.162Z,8.2
2017-10-13T00:30:17.033Z,5.3
2017-10-13T00:32:16.933Z,2.8
2017-10-13T00:34:20.752Z,6
2017-10-13T00:36:17.605Z,4.9
2017-10-13T00:38:17.470Z,3.8
2017-10-13T00:40:17.349Z,6.5
2017-10-13T00:42:17.206Z,5.8
2017-10-13T00:44:17.092Z,6.7
2017-10-13T00:46:17.975Z,8.8
2017-10-13T00:48:16.877Z,7.4
2017-10-13T00:50:17.758Z,8.7
2017-10-13T00:52:17.612Z,10.4
2017-10-13T00:54:17.520Z,5.2
2017-10-13T00:56:17.366Z,9.2
2017-10-13T00:58:17.262Z,8.3
2017-10-13T01:00:17.147Z,4.1
2017-10-13T01:02:16.990Z,8.3
2017-10-13T01:04:16.901Z,14.6
2017-10-13T01:06:17.773Z,4.7
2017-10-13T01:08:17.617Z,12.2
2017-10-13T01:10:17.482Z,7
2017-10-13T01:12:17.356Z,9.2
2017-10-13T01:14:17.236Z,6.9
2017-10-13T01:16:18.073Z,14
2017-10-13T01:18:17.961Z,10.5
2017-10-13T01:20:16.849Z,6.4
2017-10-13T01:22:17.691Z,7.4
2017-10-13T01:24:17.568Z,5.7
2017-10-13T01:26:18.454Z,5.8
2017-10-13T01:28:21.287Z,6.1
2017-10-13T01:30:17.175Z,11.3
2017-10-13T01:32:17.050Z,2.8
2017-10-13T01:34:16.926Z,8.5
2017-10-13T01:36:17.810Z,8.7
2017-10-13T01:38:17.665Z,3.7
2017-10-13T01:40:17.526Z,6.7
2017-10-13T01:42:17.442Z,2.3
2017-10-13T01:44:17.267Z,6.7
2017-10-13T01:46:17.168Z,7.7
2017-10-13T01:48:17.064Z,7.6
2017-10-13T01:50:16.891Z,9.5
2017-10-13T01:52:17.792Z,13.1
2017-10-13T01:54:17.642Z,7.7
2017-10-13T01:56:17.552Z,5.5
2017-10-13T01:58:17.390Z,1.5
2017-10-13T02:00:17.263Z,3.2
2017-10-13T02:02:17.127Z,10.6
2017-10-13T02:04:17.016Z,7.4
2017-10-13T02:06:17.856Z,6.7
2017-10-13T02:08:17.725Z,13.3
2017-10-13T02:10:17.607Z,8.1
2017-10-13T02:12:17.474Z,7.8
2017-10-13T02:14:17.364Z,17
2017-10-13T02:16:18.208Z,8.6
2017-10-13T02:18:18.075Z,8.5
2017-10-13T02:20:16.945Z,9
2017-10-13T02:22:16.802Z,6.6
2017-10-13T02:24:17.656Z,7.7
2017-10-13T02:26:17.511Z,6.7
2017-10-13T02:28:17.403Z,5.7
2017-10-13T02:30:17.233Z,7.1
2017-10-13T02:32:17.108Z,5.7
2017-10-13T02:34:16.965Z,6.8
2017-10-13T02:36:17.819Z,11
2017-10-13T02:38:17.672Z,3.7
2017-10-13T02:40:17.538Z,7
2017-10-13T02:42:17.391Z,7.9
2017-10-13T02:44:17.258Z,6.2
2017-10-13T02:46:17.112Z,7.7
2017-10-13T02:48:16.948Z,9.8
2017-10-13T02:50:16.811Z,9.1
2017-10-13T02:52:17.688Z,8.1
2017-10-13T02:54:21.480Z,8.8
2017-10-13T02:56:17.365Z,7.5
2017-10-13T02:58:17.215Z,7
2017-10-13T03:02:17.956Z,5.7
2017-10-13T03:04:16.841Z,8.1
2017-10-13T03:06:17.698Z,7.1
2017-10-13T03:08:17.566Z,8.3
2017-10-13T03:10:17.410Z,9
2017-10-13T03:12:17.299Z,12.3
2017-10-13T03:14:17.154Z,7.7
2017-10-13T03:16:17.058Z,14.2
2017-10-13T03:18:17.920Z,6.6
2017-10-13T03:20:17.791Z,12.5
2017-10-13T03:24:17.512Z,4
2017-10-13T03:26:17.379Z,9.1
2017-10-13T03:28:17.265Z,4.1
2017-10-13T03:30:17.128Z,7.2
2017-10-13T03:32:17.015Z,11.6
2017-10-13T03:34:16.875Z,9.7
2017-10-13T03:36:17.762Z,10.7
2017-10-13T03:38:17.602Z,14.3
2017-10-13T03:40:17.460Z,5.1
2017-10-13T03:42:17.325Z,10.1
2017-10-13T03:44:17.183Z,6.3
2017-10-13T03:46:18.047Z,8.1
2017-10-13T03:48:16.904Z,4.1
2017-10-13T03:50:17.748Z,5.3
2017-10-13T03:52:17.618Z,3.1
2017-10-13T03:54:17.471Z,8.9
2017-10-13T03:56:18.348Z,13.6
2017-10-13T03:58:17.193Z,4.4
2017-10-13T04:00:17.077Z,9.6
2017-10-13T04:02:16.937Z,9
2017-10-13T04:04:16.805Z,6.1
2017-10-13T04:06:17.690Z,6.5
2017-10-13T04:08:17.551Z,10.5
2017-10-13T04:10:17.417Z,4.9
2017-10-13T04:12:17.298Z,8.1
2017-10-13T04:14:21.177Z,7.4
2017-10-13T04:16:17.063Z,17.8
2017-10-13T04:18:17.927Z,9.1
2017-10-13T04:20:17.778Z,6.7
2017-10-13T04:22:17.710Z,7.7
2017-10-13T04:24:17.563Z,7.2
2017-10-13T04:26:17.402Z,7.3
2017-10-13T04:28:17.299Z,3.7
2017-10-13T04:30:17.155Z,12.7
2017-10-13T04:32:17.056Z,5.5
2017-10-13T04:34:16.937Z,9.8
2017-10-13T04:36:17.828Z,4.5
2017-10-13T04:38:17.653Z,7.8
2017-10-13T04:40:17.569Z,5.9
2017-10-13T04:42:17.397Z,8.4
2017-10-13T04:44:17.293Z,11.4
2017-10-13T04:46:17.147Z,12.3
2017-10-13T04:48:16.992Z,7.9
2017-10-13T04:50:16.868Z,11.6
2017-10-13T04:52:17.729Z,6.9
2017-10-13T04:54:21.574Z,4.2
2017-10-13T04:56:17.449Z,4.8
2017-10-13T04:58:17.295Z,7
2017-10-13T05:00:17.159Z,6.7
2017-10-13T05:02:17.028Z,5.8
2017-10-13T05:04:16.874Z,13.3
2017-10-13T05:06:17.735Z,6.1
2017-10-13T05:08:17.600Z,5.6
2017-10-13T05:10:17.489Z,9
2017-10-13T05:12:17.367Z,9.3
2017-10-13T05:14:17.218Z,10.9
2017-10-13T05:16:17.076Z,5.4
2017-10-13T05:18:20.937Z,5
2017-10-13T05:20:16.839Z,4.3
2017-10-13T05:22:17.674Z,6
2017-10-13T05:24:17.537Z,8.9
2017-10-13T05:26:17.383Z,5.2
2017-10-13T05:28:17.248Z,8.1
2017-10-13T05:30:17.141Z,8.1
2017-10-13T05:32:17.010Z,6.5
2017-10-13T05:34:16.861Z,7
2017-10-13T05:36:17.720Z,7.1
2017-10-13T05:38:17.628Z,8.1
2017-10-13T05:40:17.481Z,5.6
2017-10-13T05:42:17.378Z,8.4
2017-10-13T05:44:17.212Z,15.7
2017-10-13T05:46:18.098Z,8
2017-10-13T05:48:16.962Z,8.6
2017-10-13T05:50:16.825Z,3.7
2017-10-13T05:52:17.685Z,10.9
2017-10-13T05:54:17.558Z,7.7
2017-10-13T05:56:18.427Z,4.3
2017-10-13T05:58:17.309Z,8.1
2017-10-13T06:00:17.174Z,7
2017-10-13T06:02:17.061Z,15.2
2017-10-13T06:04:16.960Z,7.8
2017-10-13T06:06:17.786Z,8.5
2017-10-13T06:08:17.665Z,5.5
2017-10-13T06:10:17.569Z,10.4
2017-10-13T06:12:17.469Z,8.2
2017-10-13T06:14:17.330Z,7.7
2017-10-13T06:16:18.204Z,10.6
2017-10-13T06:18:21.041Z,5.2
2017-10-13T06:20:16.957Z,4.3
2017-10-13T06:22:16.836Z,9.7
2017-10-13T06:24:17.709Z,9.4
2017-10-13T06:26:17.558Z,7.6
2017-10-13T06:28:17.449Z,8.2
2017-10-13T06:30:17.283Z,5.1
2017-10-13T06:32:17.185Z,6.9
2017-10-13T06:34:17.038Z,5.3
2017-10-13T06:36:17.948Z,7.9
2017-10-13T06:38:16.788Z,10.2
2017-10-13T06:40:17.658Z,12
2017-10-13T06:42:17.552Z,5.1
2017-10-13T06:44:17.414Z,10.6
2017-10-13T06:46:17.303Z,9.5
2017-10-13T06:48:17.211Z,14.3
2017-10-13T06:50:18.068Z,6
2017-10-13T06:52:16.932Z,9.4
2017-10-13T06:54:16.800Z,7.4
2017-10-13T06:56:17.712Z,10.2
2017-10-13T06:58:17.585Z,6.7
2017-10-13T07:00:17.454Z,12.1
2017-10-13T07:02:17.329Z,5.9
2017-10-13T07:04:17.224Z,8.8
2017-10-13T07:06:18.089Z,4.5
2017-10-13T07:08:16.954Z,5.4
2017-10-13T07:10:17.845Z,9
2017-10-13T07:12:17.736Z,5.3
2017-10-13T07:14:17.610Z,8.5
2017-10-13T07:16:17.524Z,10.4
2017-10-13T07:18:18.391Z,8.3
2017-10-13T07:20:17.290Z,6.6
2017-10-13T07:22:17.152Z,6.8
2017-10-13T07:24:17.055Z,7.4
2017-10-13T07:26:17.924Z,9.1
2017-10-13T07:28:17.834Z,8.8
2017-10-13T07:30:18.697Z,8.8
2017-10-13T07:32:17.602Z,9.6
2017-10-13T07:34:17.441Z,10.5
2017-10-13T07:36:17.371Z,6.4
2017-10-13T07:38:17.243Z,5.7
2017-10-13T07:40:18.144Z,10.3
2017-10-13T07:42:17.026Z,15.2
2017-10-13T07:44:16.936Z,9.4
2017-10-13T07:46:17.818Z,6.2
2017-10-13T07:48:17.704Z,8
2017-10-13T07:50:17.592Z,8.5
2017-10-13T07:52:17.465Z,8.5
2017-10-13T07:54:17.360Z,12.5
2017-10-13T07:56:18.247Z,9.3
2017-10-13T07:58:17.133Z,6.7
2017-10-13T08:00:17.075Z,16.3
2017-10-13T08:02:16.970Z,11.4
2017-10-13T08:04:16.877Z,9.7
2017-10-13T08:06:17.721Z,14.3
2017-10-13T08:08:17.638Z,9.3
2017-10-13T08:10:17.570Z,5.8
2017-10-13T08:12:17.418Z,10.4
2017-10-13T08:14:17.294Z,13.4
2017-10-13T08:18:18.106Z,3.6
2017-10-13T08:20:16.993Z,9.1
2017-10-13T08:22:16.914Z,9.4
2017-10-13T08:24:17.827Z,12.8
2017-10-13T08:26:17.768Z,8
2017-10-13T08:28:17.639Z,7.1
2017-10-13T08:30:17.546Z,14.3
2017-10-13T08:32:17.457Z,12.6
2017-10-13T08:34:17.356Z,6.9
2017-10-13T08:36:17.274Z,9.6
2017-10-13T08:38:17.190Z,13.7
2017-10-13T08:40:18.143Z,12.5
2017-10-13T08:42:17.049Z,11.3
2017-10-13T08:44:16.967Z,12.5
2017-10-13T08:46:17.917Z,8.1
2017-10-13T08:48:17.813Z,6
2017-10-13T08:50:18.754Z,10.1
2017-10-13T08:52:17.654Z,14.2
2017-10-13T08:54:17.599Z,9.4
2017-10-13T08:56:17.554Z,6.6
2017-10-13T08:58:17.499Z,11.2
2017-10-13T09:00:17.436Z,14.9
2017-10-13T09:02:17.379Z,15.8
2017-10-13T09:04:17.316Z,16
2017-10-13T09:06:17.253Z,12.6
2017-10-13T09:08:17.180Z,15.8
2017-10-13T09:10:18.117Z,14.7
2017-10-13T09:12:17.057Z,14.2
2017-10-13T09:14:16.964Z,20.6
2017-10-13T09:16:17.902Z,19.2
2017-10-13T09:18:17.816Z,10.3
2017-10-13T09:20:17.749Z,21.6
2017-10-13T09:22:17.686Z,7.1
2017-10-13T09:24:17.572Z,13.7
2017-10-13T09:26:17.484Z,10
2017-10-13T09:28:17.418Z,14.4
2017-10-13T09:30:17.340Z,15.7
2017-10-13T09:32:17.241Z,16.4
2017-10-13T09:34:17.179Z,12.3
2017-10-13T09:36:17.116Z,12.9
2017-10-13T09:38:17.091Z,9.6
2017-10-13T09:40:17.980Z,13.5
2017-10-13T09:42:16.911Z,9.8
2017-10-13T09:44:17.818Z,15.4
2017-10-13T09:46:17.738Z,9.8
2017-10-13T09:48:17.630Z,22.9
2017-10-13T09:50:17.577Z,16.2
2017-10-13T09:52:17.503Z,9.7
2017-10-13T09:54:17.448Z,16.8
2017-10-13T09:56:17.362Z,17
2017-10-13T09:58:17.320Z,15.5
2017-10-13T10:00:17.248Z,10.9
2017-10-13T10:02:17.182Z,15
2017-10-13T10:04:17.110Z,11
2017-10-13T10:06:18.049Z,8.6
2017-10-13T10:08:16.972Z,19.1
2017-10-13T10:10:17.895Z,15.5
2017-10-13T10:12:17.865Z,11
2017-10-13T10:14:17.759Z,8.4
2017-10-13T10:16:17.693Z,11.7
2017-10-13T10:18:17.606Z,8.8
2017-10-13T10:20:17.547Z,15
2017-10-13T10:22:17.490Z,12.7
2017-10-13T10:24:17.425Z,13.9
2017-10-13T10:26:17.338Z,18.7
2017-10-13T10:28:17.292Z,7.9
2017-10-13T10:30:17.239Z,15
2017-10-13T10:32:17.147Z,6.3
2017-10-13T10:34:17.090Z,10.4
2017-10-13T10:36:18.018Z,16
2017-10-13T10:38:16.962Z,15.1
2017-10-13T10:40:17.889Z,10.4
2017-10-13T10:42:17.837Z,11.7
2017-10-13T10:44:17.746Z,10.6
2017-10-13T10:46:17.673Z,15.1
2017-10-13T10:48:17.615Z,11.6
2017-10-13T10:50:17.550Z,8
2017-10-13T10:52:17.480Z,13.4
2017-10-13T10:54:17.446Z,9.5
2017-10-13T10:56:18.375Z,7.7
2017-10-13T10:58:17.323Z,10.8
2017-10-13T11:00:17.277Z,7.8
2017-10-13T11:02:17.198Z,10.9
2017-10-13T11:04:17.168Z,12.7
2017-10-13T11:06:18.108Z,9.9
2017-10-13T11:08:17.077Z,8.7
2017-10-13T11:10:18.014Z,12.9
2017-10-13T11:12:17.004Z,7.1
2017-10-13T11:14:16.941Z,14.9
2017-10-13T11:16:17.874Z,11.4
2017-10-13T11:18:16.828Z,9.2
2017-10-13T11:20:17.774Z,12.5
2017-10-13T11:22:17.743Z,14.1
2017-10-13T11:24:17.697Z,17.3
2017-10-13T11:26:17.665Z,9.5
2017-10-13T11:28:17.615Z,8.7
2017-10-13T11:30:17.574Z,14.8
2017-10-13T11:32:17.501Z,8.6
2017-10-13T11:36:18.427Z,17.9
2017-10-13T11:38:17.370Z,13
2017-10-13T11:40:18.617Z,8.5
2017-10-13T11:42:18.307Z,7.8
2017-10-13T11:44:17.272Z,14.9
2017-10-13T11:46:18.230Z,10.8
2017-10-13T11:48:17.154Z,21
2017-10-13T11:50:17.109Z,20.6
2017-10-13T11:52:17.113Z,8.8
2017-10-13T11:54:17.034Z,18.3
2017-10-13T11:56:17.999Z,13.6
2017-10-13T11:58:16.977Z,13.7
2017-10-13T12:00:16.899Z,10.9
2017-10-13T12:02:17.859Z,12.9
2017-10-13T12:04:17.803Z,8.8
2017-10-13T12:06:17.771Z,14.8
2017-10-13T12:08:17.731Z,13.8
2017-10-13T12:10:17.721Z,13.5
2017-10-13T12:12:17.643Z,9.9
2017-10-13T12:14:17.623Z,9.8
2017-10-13T12:16:17.577Z,9.7
2017-10-13T12:18:17.522Z,15.2
2017-10-13T12:20:17.525Z,14.2
2017-10-13T12:22:17.452Z,13.7
2017-10-13T12:24:17.421Z,13.6
2017-10-13T12:26:17.387Z,15.6
2017-10-13T12:28:17.380Z,15.3
2017-10-13T12:30:17.350Z,8.4
2017-10-13T12:32:17.334Z,11.5
2017-10-13T12:34:17.317Z,13.9
2017-10-13T12:36:17.298Z,12.1
2017-10-13T12:38:17.260Z,12.2
2017-10-13T12:40:18.235Z,10.5
2017-10-13T12:42:17.242Z,9.1
2017-10-13T12:44:17.215Z,15.4
2017-10-13T12:46:17.196Z,13
2017-10-13T12:48:17.180Z,12.3
2017-10-13T12:50:17.187Z,13.2
2017-10-13T12:52:17.188Z,13.6
2017-10-13T12:54:17.164Z,9.1
2017-10-13T12:56:18.162Z,9.1
2017-10-13T12:58:17.145Z,13.3
2017-10-13T13:00:18.176Z,18.3
2017-10-13T13:02:17.151Z,10.1
2017-10-13T13:04:17.103Z,12.2
2017-10-13T13:06:18.106Z,14.9
2017-10-13T13:08:17.069Z,11.1
2017-10-13T13:12:18.041Z,13.5
2017-10-13T13:14:17.047Z,11.3
2017-10-13T13:16:18.076Z,13.9
2017-10-13T13:18:17.058Z,14.7
2017-10-13T13:20:17.049Z,12
2017-10-13T13:22:17.053Z,8.1
2017-10-13T13:24:17.069Z,14.4
2017-10-13T13:26:18.059Z,9.3
2017-10-13T13:28:17.071Z,11.4
2017-10-13T13:30:17.055Z,16.9
2017-10-13T13:32:17.071Z,11.9
2017-10-13T13:34:17.090Z,9.4
2017-10-13T13:36:17.080Z,14.2
2017-10-13T13:38:17.089Z,11.8
2017-10-13T13:40:18.104Z,15.9
2017-10-13T13:42:17.130Z,11.4
2017-10-13T13:44:17.114Z,12.4
2017-10-13T13:46:18.106Z,9.4
2017-10-13T13:48:17.120Z,14.4
2017-10-13T13:50:17.148Z,11.7
2017-10-13T13:52:17.106Z,9.2
2017-10-13T13:54:17.168Z,11.7
2017-10-13T13:56:17.161Z,13.7
2017-10-13T13:58:17.149Z,10.6
2017-10-13T14:00:17.182Z,21
2017-10-13T14:02:17.180Z,13.6
2017-10-13T14:04:17.192Z,15.2
2017-10-13T14:06:17.210Z,9.3
2017-10-13T14:08:17.209Z,9.7
2017-10-13T14:10:18.227Z,16.2
2017-10-13T14:12:17.220Z,17.3
2017-10-13T14:14:17.222Z,11.1
2017-10-13T14:16:18.224Z,8.7
2017-10-13T14:18:17.216Z,14.6
2017-10-13T14:20:17.215Z,14.3
2017-10-13T14:22:17.229Z,16.7
2017-10-13T14:24:17.234Z,6.5
2017-10-13T14:26:18.223Z,17.3
2017-10-13T14:28:17.224Z,23.4
2017-10-13T14:30:17.244Z,12.4
2017-10-13T14:32:17.273Z,15.3
2017-10-13T14:34:17.280Z,13
2017-10-13T14:36:17.316Z,19.6
2017-10-13T14:40:17.347Z,13.8
2017-10-13T14:42:17.386Z,14.2
2017-10-13T14:44:17.412Z,16.2
2017-10-13T14:46:17.419Z,14
2017-10-13T14:48:17.444Z,17.2
2017-10-13T14:50:17.474Z,9.7
2017-10-13T14:52:17.462Z,16.4
2017-10-13T14:54:17.485Z,10.7
2017-10-13T14:56:17.495Z,9.8
2017-10-13T14:58:17.539Z,15.7
2017-10-13T15:00:17.568Z,13.3
2017-10-13T15:02:17.587Z,11
2017-10-13T15:04:17.582Z,11.5
2017-10-13T15:06:17.583Z,11.8
2017-10-13T15:08:17.560Z,18.4
2017-10-13T15:10:17.586Z,13.9
2017-10-13T15:12:17.580Z,20.7
2017-10-13T15:14:17.582Z,15.7
2017-10-13T15:16:17.568Z,12
2017-10-13T15:18:17.574Z,14.6
2017-10-13T15:20:17.576Z,10.6
2017-10-13T15:22:17.546Z,9.4
2017-10-13T15:24:17.549Z,12.6
2017-10-13T15:26:18.519Z,18.9
2017-10-13T15:28:17.498Z,13.9
2017-10-13T15:30:17.490Z,17.3
2017-10-13T15:32:17.448Z,13.1
2017-10-13T15:34:17.408Z,16
2017-10-13T15:36:17.377Z,21.7
2017-10-13T15:38:17.363Z,10.3
2017-10-13T15:40:18.313Z,14.4
2017-10-13T15:42:17.294Z,10.5
2017-10-13T15:44:17.275Z,11.4
2017-10-13T15:46:17.262Z,12.9
2017-10-13T15:48:17.224Z,12.9
2017-10-13T15:50:17.213Z,10.5
2017-10-13T15:52:17.182Z,10.7
2017-10-13T15:54:17.131Z,21.5
2017-10-13T15:56:17.112Z,13
2017-10-13T15:58:17.077Z,12.1
2017-10-13T16:00:17.033Z,14.2
2017-10-13T16:04:17.954Z,9.2
2017-10-13T16:06:17.907Z,7.2
2017-10-13T16:08:17.867Z,7
2017-10-13T16:10:17.835Z,6.2
2017-10-13T16:12:17.799Z,12.4
2017-10-13T16:14:17.748Z,8.6
2017-10-13T16:16:17.720Z,10.4
2017-10-13T16:18:17.644Z,6.3
2017-10-13T16:20:17.603Z,12.9
2017-10-13T16:22:17.536Z,11.9
2017-10-13T16:24:17.483Z,9.9
2017-10-13T16:26:17.454Z,11.9
2017-10-13T16:28:17.387Z,14.2
2017-10-13T16:32:18.272Z,11.2
2017-10-13T16:34:17.230Z,9.2
2017-10-13T16:36:17.185Z,22
2017-10-13T16:38:17.137Z,12
2017-10-13T16:40:18.084Z,13.2
2017-10-13T16:42:17.025Z,14.4
2017-10-13T16:44:16.981Z,13.3
2017-10-13T16:46:17.915Z,17.2
2017-10-13T16:48:17.868Z,10.8
2017-10-13T16:50:17.811Z,6.4
2017-10-13T16:52:17.770Z,12.2
2017-10-13T16:54:17.705Z,9.6
2017-10-13T16:56:17.648Z,18.5
2017-10-13T16:58:17.581Z,10.5
2017-10-13T17:00:17.519Z,14.7
2017-10-13T17:02:17.482Z,18.9
2017-10-13T17:04:17.398Z,22.1
2017-10-13T17:06:17.354Z,33.7
2017-10-13T17:08:17.285Z,14.6
2017-10-13T17:10:18.206Z,13.5
2017-10-13T17:12:17.139Z,11.1
2017-10-13T17:14:17.071Z,14.2
2017-10-13T17:16:17.020Z,15.6
2017-10-13T17:18:16.943Z,12.6
2017-10-13T17:20:16.859Z,10.3
2017-10-13T17:22:17.803Z,12.2
2017-10-13T17:24:17.724Z,19.3
2017-10-13T17:26:17.668Z,13.3
2017-10-13T17:28:17.575Z,9.5
2017-10-13T17:30:17.483Z,13.6
2017-10-13T17:32:17.416Z,9.9
2017-10-13T17:34:17.327Z,13
2017-10-13T17:36:17.252Z,14.3
2017-10-13T17:38:17.180Z,21.5
2017-10-13T17:40:18.076Z,18.5
2017-10-13T17:42:16.989Z,15.1
2017-10-13T17:44:16.897Z,15.3
2017-10-13T17:46:17.800Z,8.1
2017-10-13T17:48:17.713Z,9.4
2017-10-13T17:50:17.622Z,10.6
2017-10-13T17:52:17.544Z,12
2017-10-13T17:54:17.445Z,15.5
2017-10-13T17:56:17.332Z,14.4
2017-10-13T17:58:17.244Z,17.2
2017-10-13T18:00:17.144Z,17.9
2017-10-13T18:02:17.058Z,16.8
2017-10-13T18:04:16.975Z,18.8
2017-10-13T18:06:17.849Z,10.5
2017-10-13T18:08:17.738Z,11.9
2017-10-13T18:10:17.649Z,16
2017-10-13T18:12:17.537Z,15.3
2017-10-13T18:14:17.413Z,16.3
2017-10-13T18:16:17.304Z,18.5
2017-10-13T18:18:17.213Z,16
2017-10-13T18:20:17.113Z,13.2
2017-10-13T18:22:17.007Z,17.2
2017-10-13T18:24:16.927Z,19.6
2017-10-13T18:26:17.798Z,11
2017-10-13T18:28:17.701Z,17.1
2017-10-13T18:30:17.579Z,14.1
2017-10-13T18:32:17.462Z,16.8
2017-10-13T18:34:17.337Z,14.4
2017-10-13T18:36:18.199Z,13.2
2017-10-13T18:38:17.079Z,16.5
2017-10-13T18:40:17.961Z,17
2017-10-13T18:42:16.916Z,15.9
2017-10-13T18:44:17.725Z,14
2017-10-13T18:46:17.619Z,18.3
2017-10-13T18:48:17.514Z,17
2017-10-13T18:50:17.362Z,18.9
2017-10-13T18:52:17.244Z,26.7
2017-10-13T18:54:17.138Z,21.8
2017-10-13T18:56:18.184Z,31.2
2017-10-13T18:58:17.883Z,18.9
2017-10-13T19:00:17.757Z,22.9
2017-10-13T19:02:17.641Z,28.7
2017-10-13T19:04:17.517Z,19.5
2017-10-13T19:06:18.412Z,22
2017-10-13T19:08:17.295Z,30.6
2017-10-13T19:10:18.165Z,18.7
2017-10-13T19:12:17.030Z,14.2
2017-10-13T19:14:16.936Z,21.7
2017-10-13T19:16:17.817Z,21.9
2017-10-13T19:18:21.675Z,22.4
2017-10-13T19:20:17.579Z,16.9
2017-10-13T19:22:17.488Z,18.4
2017-10-13T19:24:17.377Z,24.9
2017-10-13T19:26:17.264Z,14.4
2017-10-13T19:28:17.158Z,20.4
2017-10-13T19:30:18.041Z,15.6
2017-10-13T19:32:16.969Z,20.1
2017-10-13T19:34:16.844Z,20.8
2017-10-13T19:36:17.700Z,14.1
2017-10-13T19:38:17.641Z,22.4
2017-10-13T19:40:17.504Z,15.5
2017-10-13T19:42:17.396Z,17.3
2017-10-13T19:44:17.304Z,14.8
2017-10-13T19:46:17.227Z,19.9
2017-10-13T19:48:17.091Z,22.8
2017-10-13T19:50:17.010Z,17.5
2017-10-13T19:52:16.892Z,22.4
2017-10-13T19:54:17.815Z,22.8
2017-10-13T19:56:17.691Z,15
2017-10-13T19:58:17.590Z,20.9
2017-10-13T20:00:17.512Z,24.1
2017-10-13T20:02:17.383Z,19.6
2017-10-13T20:04:17.289Z,19.6
2017-10-13T20:06:17.212Z,17.8
2017-10-13T20:08:17.127Z,25.4
2017-10-13T20:10:18.027Z,24
2017-10-13T20:12:16.918Z,25.6
2017-10-13T20:14:17.836Z,23.5
2017-10-13T20:16:17.741Z,19.3
2017-10-13T20:18:21.635Z,19.6
2017-10-13T20:20:17.565Z,27.4
2017-10-13T20:22:17.466Z,25.3
2017-10-13T20:24:17.375Z,27.2
2017-10-13T20:26:18.266Z,24.4
2017-10-13T20:28:17.180Z,25.5
2017-10-13T20:30:17.101Z,20.9
2017-10-13T20:32:17.008Z,28.4
2017-10-13T20:34:16.912Z,21.9
2017-10-13T20:36:17.803Z,24.3
2017-10-13T20:38:17.695Z,23.5
2017-10-13T20:40:17.644Z,27.6
2017-10-13T20:42:17.538Z,22.8
2017-10-13T20:44:17.432Z,25.8
2017-10-13T20:46:17.349Z,19.5
2017-10-13T20:48:17.269Z,25.2
2017-10-13T20:50:18.152Z,18.1
2017-10-13T20:52:17.052Z,18.7
2017-10-13T20:54:16.992Z,20.9
2017-10-13T20:56:17.923Z,26.1
2017-10-13T20:58:17.828Z,24.5
2017-10-13T21:00:17.747Z,29.1
2017-10-13T21:02:17.667Z,20.8
2017-10-13T21:04:17.574Z,23.7
2017-10-13T21:06:17.502Z,24.9
2017-10-13T21:08:17.408Z,26.3
2017-10-13T21:10:18.326Z,19.6
2017-10-13T21:12:17.277Z,29.5
2017-10-13T21:14:17.181Z,28.8
2017-10-13T21:16:18.081Z,22.4
2017-10-13T21:18:17.009Z,23.7
2017-10-13T21:20:16.949Z,28.5
2017-10-13T21:22:16.859Z,25.6
2017-10-13T21:26:17.723Z,27
2017-10-13T21:28:17.644Z,27
2017-10-13T21:30:17.571Z,29.4
2017-10-13T21:32:17.512Z,26.9
2017-10-13T21:34:17.447Z,25.5
2017-10-13T21:36:18.411Z,25.1
2017-10-13T21:38:17.312Z,27.2
2017-10-13T21:40:18.233Z,19.6
2017-10-13T21:42:17.172Z,22.9
2017-10-13T21:44:17.098Z,22.9
2017-10-13T21:46:18.012Z,20.7
2017-10-13T21:48:16.945Z,30.3
2017-10-13T21:50:16.858Z,22.5
2017-10-13T21:52:17.807Z,21.2
2017-10-13T21:54:17.726Z,25.6
2017-10-13T21:56:17.630Z,20.1
2017-10-13T21:58:17.572Z,20.8
2017-10-13T22:00:17.483Z,19.9
2017-10-13T22:02:17.385Z,21.6
2017-10-13T22:04:17.360Z,20.2
2017-10-13T22:06:18.258Z,13.2
2017-10-13T22:08:17.188Z,22.3
2017-10-13T22:10:18.089Z,17.4
2017-10-13T22:12:17.016Z,22
2017-10-13T22:14:16.939Z,12.4
2017-10-13T22:16:17.826Z,17.5
2017-10-13T22:18:17.782Z,20.7
2017-10-13T22:20:17.678Z,21.1
2017-10-13T22:22:17.582Z,37.3
2017-10-13T22:24:17.516Z,21.6
2017-10-13T22:26:17.433Z,34.1
2017-10-13T22:28:17.353Z,29
2017-10-13T22:30:17.282Z,23.8
2017-10-13T22:32:17.195Z,24.2
2017-10-13T22:34:17.100Z,15.8
2017-10-13T22:36:18.045Z,31.8
2017-10-13T22:38:16.976Z,28.3
2017-10-13T22:40:17.910Z,25.3
2017-10-13T22:42:17.815Z,23.2
2017-10-13T22:44:17.750Z,24.5
2017-10-13T22:46:17.670Z,26.6
2017-10-13T22:48:17.611Z,21.3
2017-10-13T22:50:17.537Z,30.6
2017-10-13T22:52:17.480Z,26.5
2017-10-13T22:54:17.373Z,24.5
2017-10-13T22:56:17.316Z,19.7
2017-10-13T22:58:17.267Z,14.3
2017-10-13T23:00:17.178Z,22
2017-10-13T23:02:17.105Z,21.8
2017-10-13T23:04:17.043Z,28.4
2017-10-13T23:06:16.965Z,19.1
2017-10-13T23:08:16.894Z,14.6
2017-10-13T23:10:17.829Z,15.2
2017-10-13T23:12:17.777Z,18.6
2017-10-13T23:14:17.697Z,10.4
2017-10-13T23:16:17.641Z,17.7
2017-10-13T23:18:17.556Z,15.1
2017-10-13T23:20:17.519Z,9.4
2017-10-13T23:22:17.426Z,9
2017-10-13T23:24:17.363Z,12.7
2017-10-13T23:26:18.306Z,11.2
2017-10-13T23:28:17.245Z,11.6
2017-10-13T23:30:17.152Z,11.8
2017-10-13T23:32:17.087Z,10.3
2017-10-13T23:34:17.018Z,12.1
2017-10-13T23:36:17.949Z,11.5
2017-10-13T23:38:16.871Z,13.4
2017-10-13T23:40:17.814Z,15
2017-10-13T23:42:17.766Z,18.5
2017-10-13T23:44:17.683Z,11.9
2017-10-13T23:46:17.607Z,9
2017-10-13T23:48:17.567Z,9.4
2017-10-13T23:50:17.509Z,10.2
2017-10-13T23:52:17.399Z,15.5
2017-10-13T23:54:17.350Z,13.3
2017-10-13T23:56:17.270Z,11.5
2017-10-13T23:58:17.270Z,13.3
